Vernon, CO

6:44 PM MDT on July 30, 2014 (GMT -0600)
KCOYUMA4 Elev 4134 ft | 40.12 °N, 102.72 °W | Change Station

Current weather conditions updated 18 seconds ago

Clear
Clear
67.0 °F
Feels Like 67.0 °F
N
3.0
Wind Variable Wind from WSW
Gusts 4.0 mph

Tomorrow is forecast to be Much Warmer than today.

Today
High -- | Low -- °F
--% Chance of Precip.
Yesterday
High -- | Low -- °F
Precip. -- in
5:46 AM 8:04 PM
Waxing Crescent, 14% visible
Pressure 30.22 in
Visibility 10.0 miles
Clouds Clear
Dew Point 56 °F
Humidity 69%
Rainfall 0.25 in
Snow Depth Not available.
UV 0.0 out of 12
Pollen .80 out of 12
Air Quality Not available.
Flu Activity Not available.
METAR KSYF 310035Z AUTO 25005KT 10SM CLR 21/12 A3022 RMK AO2 T02110119

More Conditions Fewer Conditions

Pressure 30.22 in
Visibility 10.0 miles
Clouds Clear
Dew Point 56 °F
Humidity 69%
Rainfall 0.25 in
Snow Depth Not available.
UV 0.0 out of 12
Pollen .80 out of 12
Air Quality Not available.
Flu Activity Not available.
METAR KSYF 310035Z AUTO 25005KT 10SM CLR 21/12 A3022 RMK AO2 T02110119

More Conditions Fewer Conditions

10-Day Weather Forecast

Almanac

Astronomy

Jul. 30, 2014 Rise Set
Actual Time 5:46 AM MDT 8:04 PM MDT
Civil Twilight 5:15 AM MDT 8:35 PM MDT
Nautical Twilight 4:38 AM MDT 9:12 PM MDT
Astronomical Twilight 3:56 AM MDT 9:53 PM MDT
Moon 9:19 AM MDT (7/30) 9:48 PM MDT (7/30)
Length of Visible Light 15h 19m
Length of Day
14h 18m
Tomorrow will be 1m 56s shorter.
Waxing Crescent, 14% of the Moon is Illuminated
Today
Waxing Crescent
Aug 3
First Quarter
Aug 10
Full
Aug 17
Last Quarter
Aug 25
New

Today's Extremes

State Highs State Lows

Community

WunderPhotos

Upload Photos

1,739,261 photos uploaded!

Nearby

Snow Depth

Station Depth Elevation
University Camp 0 in 10300 ft
Copeland Lake 0 in 8600 ft
Wild Basin 1 in 9560 ft
Echo Lake 0 in 10600 ft
Willow Park 0 in 10700 ft

Earthquake Activity

City Distance Mag. Time & Date
No recent earthquake activity has been reported nearby.
Minimum magnitude displayed is 2.5.

Coastal Water Temperatures

Place Temperature
No Stations Reporting

Nearby Weather Stations

Station Location Temp. Dew Point Humidity Wind Precip. Elev Updated Type
Yuma, CO 67.0 °F 56 °F 69% WSW  at  3.0 mph 0.00 in / hr 4134 ft 6:43 PM MDT Normal

Show More Stations Show Fewer Stations